createdAt,value
2018-09-04T00:01:43.234Z,53.50
2018-09-04T00:04:11.299Z,53.60
2018-09-04T00:06:39.359Z,53.50
2018-09-04T00:09:07.730Z,53.40
2018-09-04T00:11:35.783Z,53.50
2018-09-04T00:14:03.867Z,53.80
2018-09-04T00:16:31.926Z,53.80
2018-09-04T00:18:59.982Z,53.80
2018-09-04T00:21:28.044Z,53.80
2018-09-04T00:23:56.103Z,53.60
2018-09-04T00:26:24.214Z,53.50
2018-09-04T00:28:52.282Z,53.50
2018-09-04T00:31:20.395Z,53.50
2018-09-04T00:33:48.462Z,53.40
2018-09-04T00:36:16.527Z,53.40
2018-09-04T00:38:44.600Z,53.50
2018-09-04T00:41:12.695Z,53.60
2018-09-04T00:43:40.788Z,53.70
2018-09-04T00:46:08.847Z,53.60
2018-09-04T00:48:36.950Z,53.60
2018-09-04T00:51:05.018Z,53.50
2018-09-04T00:53:33.114Z,53.60
2018-09-04T00:56:01.235Z,53.50
2018-09-04T00:58:29.311Z,53.50
2018-09-04T01:00:57.371Z,53.70
2018-09-04T01:03:25.447Z,53.70
2018-09-04T01:05:53.536Z,53.70
2018-09-04T01:08:21.866Z,53.90
2018-09-04T01:10:49.954Z,54.00
2018-09-04T01:13:18.018Z,54.00
2018-09-04T01:15:46.107Z,54.00
2018-09-04T01:18:14.175Z,53.90
2018-09-04T01:20:42.243Z,53.80
2018-09-04T01:23:10.547Z,53.80
2018-09-04T01:25:39.129Z,53.80
2018-09-04T01:28:08.022Z,53.70
2018-09-04T01:30:36.070Z,53.60
2018-09-04T01:33:04.162Z,53.70
2018-09-04T01:35:32.218Z,53.60
2018-09-04T01:38:00.299Z,53.80
2018-09-04T01:40:28.350Z,54.00
2018-09-04T01:42:56.440Z,54.40
2018-09-04T01:45:24.543Z,54.20
2018-09-04T01:47:52.590Z,54.20
2018-09-04T01:50:20.657Z,54.40
2018-09-04T01:52:48.746Z,54.40
2018-09-04T01:55:17.163Z,54.50
2018-09-04T01:57:45.231Z,54.40
2018-09-04T02:00:13.314Z,54.40
2018-09-04T02:02:41.375Z,54.30
2018-09-04T02:05:09.447Z,54.30
2018-09-04T02:07:37.510Z,54.10
2018-09-04T02:10:05.966Z,54.10
2018-09-04T02:12:34.022Z,54.20
2018-09-04T02:15:02.091Z,54.50
2018-09-04T02:17:30.490Z,54.60
2018-09-04T02:19:58.566Z,54.60
2018-09-04T02:22:26.644Z,54.40
2018-09-04T02:24:54.810Z,54.20
2018-09-04T02:27:22.883Z,54.20
2018-09-04T02:29:50.955Z,54.00
2018-09-04T02:32:19.026Z,54.00
2018-09-04T02:34:47.107Z,53.90
2018-09-04T02:37:15.187Z,53.80
2018-09-04T02:39:43.275Z,53.80
2018-09-04T02:42:11.346Z,53.70
2018-09-04T02:44:39.436Z,53.70
2018-09-04T02:47:07.512Z,53.70
2018-09-04T02:49:35.623Z,53.70
2018-09-04T02:52:03.714Z,53.70
2018-09-04T02:54:31.794Z,53.60
2018-09-04T02:56:59.870Z,53.60
2018-09-04T02:59:27.943Z,53.60
2018-09-04T03:01:56.044Z,53.50
2018-09-04T03:04:24.136Z,53.50
2018-09-04T03:06:52.208Z,53.50
2018-09-04T03:09:20.311Z,53.50
2018-09-04T03:11:48.395Z,53.50
2018-09-04T03:14:16.483Z,53.60
2018-09-04T03:16:44.554Z,53.50
2018-09-04T03:19:12.638Z,53.80
2018-09-04T03:21:40.711Z,53.50
2018-09-04T03:24:08.963Z,53.50
2018-09-04T03:26:37.367Z,53.50
2018-09-04T03:29:05.443Z,53.50
2018-09-04T03:31:33.526Z,53.50
2018-09-04T03:34:01.594Z,53.50
2018-09-04T03:36:29.694Z,53.50
2018-09-04T03:38:57.978Z,53.50
2018-09-04T03:41:26.090Z,53.40
2018-09-04T03:43:54.171Z,53.40
2018-09-04T03:46:22.258Z,53.40
2018-09-04T03:48:50.366Z,53.40
2018-09-04T03:51:18.447Z,53.40
2018-09-04T03:53:46.526Z,53.40
2018-09-04T03:56:14.622Z,53.20
2018-09-04T03:58:42.723Z,53.40
2018-09-04T04:01:11.159Z,53.40
2018-09-04T04:03:39.241Z,53.40
2018-09-04T04:06:07.314Z,53.40
2018-09-04T04:08:35.499Z,53.40
2018-09-04T04:11:03.578Z,53.40
2018-09-04T04:13:31.650Z,53.30
2018-09-04T04:15:59.719Z,53.30
2018-09-04T04:18:27.790Z,53.30
2018-09-04T04:20:58.469Z,53.30
2018-09-04T04:23:27.447Z,53.30
2018-09-04T04:25:56.031Z,54.00
2018-09-04T04:28:24.515Z,53.50
2018-09-04T04:30:52.587Z,53.60
2018-09-04T04:33:20.855Z,53.60
2018-09-04T04:35:49.809Z,53.50
2018-09-04T04:38:18.015Z,53.40
2018-09-04T04:40:46.114Z,53.40
2018-09-04T04:43:14.186Z,53.50
2018-09-04T04:45:42.543Z,53.50
2018-09-04T04:48:10.627Z,53.40
2018-09-04T04:50:38.719Z,53.40
2018-09-04T04:53:06.843Z,54.10
2018-09-04T04:55:35.004Z,53.60
2018-09-04T04:58:03.091Z,54.50
2018-09-04T05:00:31.260Z,54.80
2018-09-04T05:02:59.278Z,54.50
2018-09-04T05:05:27.350Z,54.70
2018-09-04T05:07:55.427Z,54.50
2018-09-04T05:10:23.534Z,54.50
2018-09-04T05:12:51.611Z,55.00
2018-09-04T05:15:19.713Z,55.70
2018-09-04T05:17:47.790Z,55.80
2018-09-04T05:20:21.647Z,55.90
2018-09-04T05:22:49.947Z,55.80
2018-09-04T05:25:17.955Z,56.30
2018-09-04T05:27:46.077Z,56.40
2018-09-04T05:30:14.276Z,55.40
2018-09-04T05:32:45.703Z,55.60
2018-09-04T05:35:14.786Z,56.30
2018-09-04T05:37:43.590Z,55.20
2018-09-04T05:40:12.362Z,55.50
2018-09-04T05:42:45.322Z,55.40
2018-09-04T05:45:13.407Z,55.40
2018-09-04T05:47:41.811Z,55.40
2018-09-04T05:50:10.599Z,55.10
2018-09-04T05:52:38.764Z,55.00
2018-09-04T05:55:07.119Z,55.00
2018-09-04T05:57:35.179Z,55.00
2018-09-04T06:00:05.366Z,55.10
2018-09-04T06:02:33.452Z,55.10
2018-09-04T06:05:01.527Z,55.10
2018-09-04T06:07:29.615Z,55.20
2018-09-04T06:09:57.727Z,55.20
2018-09-04T06:12:25.820Z,55.20
2018-09-04T06:14:53.902Z,55.20
2018-09-04T06:17:21.981Z,55.20
2018-09-04T06:19:50.198Z,55.20
2018-09-04T06:22:18.276Z,55.20
2018-09-04T06:24:46.358Z,55.20
2018-09-04T06:27:14.431Z,55.30
2018-09-04T06:29:42.717Z,55.90
2018-09-04T06:32:10.857Z,55.30
2018-09-04T06:34:38.915Z,55.20
2018-09-04T06:37:07.202Z,55.20
2018-09-04T06:39:35.266Z,55.20
2018-09-04T06:42:03.327Z,55.20
2018-09-04T06:44:31.386Z,55.10
2018-09-04T06:47:00.080Z,55.10
2018-09-04T06:49:28.143Z,55.20
2018-09-04T06:51:56.219Z,55.20
2018-09-04T06:54:24.284Z,55.20
2018-09-04T06:56:52.355Z,55.20
2018-09-04T06:59:20.442Z,55.20
2018-09-04T07:01:48.539Z,55.20
2018-09-04T07:04:16.615Z,55.20
2018-09-04T07:06:44.682Z,55.20
2018-09-04T07:09:14.292Z,55.20
2018-09-04T07:11:43.270Z,55.20
2018-09-04T07:14:11.343Z,55.10
2018-09-04T07:16:39.591Z,55.20
2018-09-04T07:19:07.975Z,55.20
2018-09-04T07:21:36.051Z,55.20
2018-09-04T07:24:04.154Z,55.20
2018-09-04T07:26:32.468Z,55.20
2018-09-04T07:29:00.550Z,55.20
2018-09-04T07:31:28.627Z,55.20
2018-09-04T07:33:56.715Z,55.20
2018-09-04T07:36:24.832Z,55.20
2018-09-04T07:38:52.864Z,55.20
2018-09-04T07:41:20.927Z,55.20
2018-09-04T07:43:49.015Z,55.20
2018-09-04T07:46:17.094Z,55.10
2018-09-04T07:48:45.199Z,55.10
2018-09-04T07:51:13.272Z,55.20
2018-09-04T07:53:41.395Z,55.20
2018-09-04T07:56:09.427Z,55.20
2018-09-04T07:58:37.535Z,55.10
2018-09-04T08:01:05.706Z,55.10
2018-09-04T08:03:34.064Z,55.10
2018-09-04T08:06:02.590Z,55.10
2018-09-04T08:08:30.687Z,55.10
2018-09-04T08:10:58.756Z,55.10
2018-09-04T08:13:26.859Z,55.10
2018-09-04T08:15:54.947Z,55.10
2018-09-04T08:18:23.028Z,55.10
2018-09-04T08:20:51.191Z,55.10
2018-09-04T08:23:19.203Z,55.10
2018-09-04T08:25:47.306Z,55.10
2018-09-04T08:28:15.400Z,55.10
2018-09-04T08:30:43.475Z,55.20
2018-09-04T08:33:11.576Z,55.10
2018-09-04T08:35:39.891Z,55.00
2018-09-04T08:38:07.983Z,55.00
2018-09-04T08:40:36.060Z,55.00
2018-09-04T08:43:04.138Z,55.00
2018-09-04T08:45:32.621Z,55.00
2018-09-04T08:48:02.011Z,55.00
2018-09-04T08:50:31.835Z,55.00
2018-09-04T08:52:59.867Z,55.00
2018-09-04T08:55:27.947Z,55.00
2018-09-04T08:57:56.027Z,54.50
2018-09-04T09:00:24.163Z,55.00
2018-09-04T09:02:52.253Z,55.00
2018-09-04T09:05:20.371Z,55.00
2018-09-04T09:07:49.212Z,55.40
2018-09-04T09:10:17.329Z,55.00
2018-09-04T09:12:45.383Z,55.10
2018-09-04T09:15:13.479Z,55.00
2018-09-04T09:17:41.555Z,55.00
2018-09-04T09:20:09.690Z,55.00
2018-09-04T09:22:37.864Z,55.00
2018-09-04T09:25:06.285Z,55.00
2018-09-04T09:27:34.350Z,55.00
2018-09-04T09:30:02.447Z,55.00
2018-09-04T09:32:30.535Z,55.00
2018-09-04T09:34:58.628Z,55.00
2018-09-04T09:37:26.699Z,55.00
2018-09-04T09:39:54.971Z,55.00
2018-09-04T09:42:23.031Z,55.00
2018-09-04T09:44:51.107Z,55.00
2018-09-04T09:47:19.170Z,55.00
2018-09-04T09:49:47.243Z,55.00
2018-09-04T09:52:15.299Z,55.00
2018-09-04T09:54:43.379Z,54.90
2018-09-04T09:57:11.454Z,54.90
2018-09-04T09:59:39.579Z,54.90
2018-09-04T10:02:08.562Z,54.90
2018-09-04T10:04:36.871Z,54.80
2018-09-04T10:07:04.974Z,54.70
2018-09-04T10:09:33.063Z,54.80
2018-09-04T10:12:01.144Z,54.70
2018-09-04T10:14:30.472Z,54.70
2018-09-04T10:16:58.579Z,54.70
2018-09-04T10:19:26.667Z,54.80
2018-09-04T10:21:54.762Z,54.70
2018-09-04T10:24:22.867Z,54.70
2018-09-04T10:26:50.951Z,54.70
2018-09-04T10:29:19.031Z,54.70
2018-09-04T10:31:47.142Z,54.80
2018-09-04T10:34:16.158Z,54.70
2018-09-04T10:36:45.173Z,54.70
2018-09-04T10:39:18.518Z,54.70
2018-09-04T10:41:46.603Z,54.80
2018-09-04T10:44:14.826Z,54.70
2018-09-04T10:46:42.883Z,54.70
2018-09-04T10:49:10.951Z,54.70
2018-09-04T10:51:39.054Z,54.80
2018-09-04T10:54:07.155Z,54.70
2018-09-04T10:56:35.338Z,54.60
2018-09-04T10:59:03.432Z,54.70
2018-09-04T11:01:31.527Z,54.70
2018-09-04T11:03:59.732Z,54.70
2018-09-04T11:06:27.811Z,54.60
2018-09-04T11:08:55.940Z,54.60
2018-09-04T11:11:23.979Z,54.60
2018-09-04T11:13:52.779Z,54.60
2018-09-04T11:16:20.863Z,55.00
2018-09-04T11:18:48.935Z,54.70
2018-09-04T11:21:17.029Z,55.30
2018-09-04T11:23:45.243Z,54.60
2018-09-04T11:26:13.193Z,54.60
2018-09-04T11:28:44.499Z,54.50
2018-09-04T11:31:12.569Z,54.50
2018-09-04T11:33:40.638Z,54.50
2018-09-04T11:36:08.719Z,54.60
2018-09-04T11:38:37.071Z,54.50
2018-09-04T11:41:05.143Z,54.50
2018-09-04T11:43:36.144Z,54.60
2018-09-04T11:46:04.635Z,54.60
2018-09-04T11:48:36.958Z,54.60
2018-09-04T11:51:05.837Z,54.60
2018-09-04T11:53:33.907Z,54.50
2018-09-04T11:56:01.975Z,54.60
2018-09-04T11:58:30.044Z,54.50
2018-09-04T12:00:58.580Z,54.60
2018-09-04T12:03:26.639Z,54.60
2018-09-04T12:05:54.811Z,54.50
2018-09-04T12:08:22.775Z,54.50
2018-09-04T12:10:50.839Z,54.60
2018-09-04T12:13:24.400Z,54.80
2018-09-04T12:15:52.470Z,55.00
2018-09-04T12:18:20.523Z,55.00
2018-09-04T12:20:50.215Z,55.10
2018-09-04T12:23:18.185Z,55.20
2018-09-04T12:25:47.686Z,55.30
2018-09-04T12:28:15.754Z,55.20
2018-09-04T12:30:43.872Z,55.50
2018-09-04T12:33:11.980Z,55.30
2018-09-04T12:35:40.043Z,55.30
2018-09-04T12:38:10.706Z,55.20
2018-09-04T12:40:38.784Z,55.60
2018-09-04T12:43:06.891Z,55.70
2018-09-04T12:45:40.427Z,55.90
2018-09-04T12:48:10.690Z,56.20
2018-09-04T12:50:39.176Z,55.80
2018-09-04T12:53:07.277Z,55.80
2018-09-04T12:55:35.347Z,55.80
2018-09-04T12:58:03.952Z,56.00
2018-09-04T13:00:32.323Z,56.10
2018-09-04T13:03:00.463Z,56.10
2018-09-04T13:05:28.676Z,56.00
2018-09-04T13:07:56.857Z,56.10
2018-09-04T13:10:24.928Z,56.10
2018-09-04T13:12:53.006Z,56.20
2018-09-04T13:15:21.088Z,56.70
2018-09-04T13:17:49.184Z,56.10
2018-09-04T13:20:17.427Z,56.00
2018-09-04T13:22:45.730Z,56.10
2018-09-04T13:25:13.906Z,56.10
2018-09-04T13:27:41.978Z,56.10
2018-09-04T13:30:10.229Z,56.10
2018-09-04T13:32:38.303Z,55.90
2018-09-04T13:35:06.395Z,56.10
2018-09-04T13:37:34.914Z,56.00
2018-09-04T13:40:03.651Z,55.90
2018-09-04T13:42:32.691Z,56.10
2018-09-04T13:45:00.765Z,55.90
2018-09-04T13:47:31.090Z,55.80
2018-09-04T13:49:59.364Z,55.80
2018-09-04T13:52:28.763Z,56.00
2018-09-04T13:54:57.138Z,56.50
2018-09-04T13:57:26.142Z,56.50
2018-09-04T13:59:54.234Z,55.90
2018-09-04T14:02:22.358Z,56.20
2018-09-04T14:04:50.460Z,56.00
2018-09-04T14:07:18.570Z,56.00
2018-09-04T14:09:46.652Z,56.00
2018-09-04T14:12:14.729Z,55.90
2018-09-04T14:14:42.877Z,55.80
2018-09-04T14:17:13.835Z,55.70
2018-09-04T14:19:41.930Z,55.70
2018-09-04T14:22:09.999Z,55.80
2018-09-04T14:24:38.090Z,55.80
2018-09-04T14:27:06.215Z,55.80
2018-09-04T14:32:02.901Z,56.10
2018-09-04T14:34:31.922Z,56.20
2018-09-04T14:37:00.284Z,57.00
2018-09-04T14:39:28.179Z,56.40
2018-09-04T14:41:56.403Z,56.50
2018-09-04T14:44:24.525Z,56.50
2018-09-04T14:46:52.575Z,56.50
2018-09-04T14:49:20.648Z,56.50
2018-09-04T14:51:48.711Z,56.20
2018-09-04T14:54:16.787Z,56.10
2018-09-04T14:56:44.839Z,56.10
2018-09-04T14:59:12.899Z,56.10
2018-09-04T15:01:40.971Z,56.00
2018-09-04T15:04:09.035Z,56.00
2018-09-04T15:06:37.084Z,56.60
2018-09-04T15:09:05.996Z,56.40
2018-09-04T15:11:34.199Z,55.50
2018-09-04T15:14:02.699Z,55.40
2018-09-04T15:16:30.933Z,55.20
2018-09-04T15:18:59.112Z,55.10
2018-09-04T15:21:27.109Z,55.00
2018-09-04T15:23:55.175Z,54.90
2018-09-04T15:26:23.269Z,54.80
2018-09-04T15:28:51.663Z,54.80
2018-09-04T15:31:19.759Z,54.80
2018-09-04T15:33:47.843Z,54.80
2018-09-04T15:36:15.927Z,54.80
2018-09-04T15:38:44.008Z,54.80
2018-09-04T15:41:12.071Z,54.90
2018-09-04T15:43:40.170Z,54.80
2018-09-04T15:46:08.239Z,54.80
2018-09-04T15:48:36.320Z,54.80
2018-09-04T15:51:04.959Z,54.80
2018-09-04T15:53:33.036Z,54.80
2018-09-04T15:56:01.115Z,54.80
2018-09-04T15:58:29.212Z,54.80
2018-09-04T16:00:57.359Z,54.80
2018-09-04T16:03:25.455Z,54.80
2018-09-04T16:05:53.540Z,54.80
2018-09-04T16:08:21.628Z,54.80
2018-09-04T16:10:49.708Z,54.80
2018-09-04T16:13:17.781Z,54.80
2018-09-04T16:15:45.877Z,54.80
2018-09-04T16:18:13.947Z,54.80
2018-09-04T16:20:42.027Z,54.80
2018-09-04T16:23:10.479Z,54.80
2018-09-04T16:25:38.571Z,54.70
2018-09-04T16:28:06.640Z,54.80
2018-09-04T16:30:34.703Z,54.70
2018-09-04T16:33:02.777Z,54.80
2018-09-04T16:35:30.880Z,54.70
2018-09-04T16:37:58.934Z,54.60
2018-09-04T16:40:27.004Z,54.60
2018-09-04T16:42:55.090Z,54.60
2018-09-04T16:45:23.167Z,54.50
2018-09-04T16:47:51.270Z,54.60
2018-09-04T16:50:19.350Z,54.50
2018-09-04T16:52:47.434Z,54.50
2018-09-04T16:55:15.507Z,54.50
2018-09-04T16:57:43.611Z,54.50
2018-09-04T17:00:11.697Z,54.50
2018-09-04T17:02:39.757Z,54.50
2018-09-04T17:05:07.852Z,54.50
2018-09-04T17:07:35.899Z,54.50
2018-09-04T17:10:03.967Z,54.50
2018-09-04T17:12:32.444Z,54.50
2018-09-04T17:15:00.527Z,54.50
2018-09-04T17:17:28.687Z,54.50
2018-09-04T17:19:56.815Z,54.00
2018-09-04T17:22:24.866Z,54.50
2018-09-04T17:24:52.943Z,54.50
2018-09-04T17:27:21.020Z,54.50
2018-09-04T17:29:49.092Z,54.50
2018-09-04T17:32:17.311Z,54.50
2018-09-04T17:34:45.442Z,54.50
2018-09-04T17:37:13.540Z,54.50
2018-09-04T17:39:41.607Z,54.50
2018-09-04T17:42:09.675Z,54.50
2018-09-04T17:44:37.904Z,54.50
2018-09-04T17:47:05.959Z,54.50
2018-09-04T17:49:34.042Z,54.60
2018-09-04T17:52:02.142Z,54.70
2018-09-04T17:54:30.199Z,54.60
2018-09-04T17:56:58.264Z,54.70
2018-09-04T17:59:26.322Z,54.60
2018-09-04T18:01:54.403Z,54.70
2018-09-04T18:04:22.460Z,55.30
2018-09-04T18:06:50.535Z,55.90
2018-09-04T18:09:18.645Z,57.50
2018-09-04T18:11:46.715Z,57.00
2018-09-04T18:14:14.998Z,57.30
2018-09-04T18:16:43.075Z,57.30
2018-09-04T18:19:11.212Z,57.10
2018-09-04T18:21:39.307Z,56.80
2018-09-04T18:24:07.402Z,56.40
2018-09-04T18:26:35.542Z,56.40
2018-09-04T18:29:03.651Z,56.40
2018-09-04T18:31:31.842Z,57.50
2018-09-04T18:33:59.963Z,57.80
2018-09-04T18:36:28.066Z,57.70
2018-09-04T18:38:56.366Z,57.20
2018-09-04T18:41:24.596Z,57.20
2018-09-04T18:43:52.655Z,56.80
2018-09-04T18:46:20.755Z,56.80
2018-09-04T18:48:48.893Z,56.80
2018-09-04T18:51:16.935Z,57.10
2018-09-04T18:53:45.019Z,57.20
2018-09-04T18:56:13.128Z,57.00
2018-09-04T18:58:41.194Z,56.70
2018-09-04T19:01:09.284Z,56.50
2018-09-04T19:03:37.363Z,56.30
2018-09-04T19:06:05.443Z,56.40
2018-09-04T19:08:33.514Z,56.40
2018-09-04T19:11:01.602Z,56.30
2018-09-04T19:13:29.684Z,56.20
2018-09-04T19:15:57.773Z,56.00
2018-09-04T19:18:25.867Z,56.10
2018-09-04T19:20:53.956Z,56.80
2018-09-04T19:23:22.050Z,56.20
2018-09-04T19:25:50.215Z,56.20
2018-09-04T19:28:18.295Z,56.10
2018-09-04T19:30:46.370Z,56.00
2018-09-04T19:33:14.449Z,56.10
2018-09-04T19:35:42.525Z,56.10
2018-09-04T19:38:10.798Z,56.10
2018-09-04T19:40:39.048Z,56.10
2018-09-04T19:43:07.448Z,56.20
2018-09-04T19:45:35.486Z,56.10
2018-09-04T19:48:03.575Z,56.20
2018-09-04T19:50:31.645Z,56.20
2018-09-04T19:52:59.743Z,56.30
2018-09-04T19:55:27.874Z,56.20
2018-09-04T19:57:55.911Z,56.10
2018-09-04T20:00:23.986Z,56.10
2018-09-04T20:02:52.072Z,56.10
2018-09-04T20:05:20.387Z,56.10
2018-09-04T20:07:48.482Z,56.00
2018-09-04T20:10:16.601Z,56.00
2018-09-04T20:12:44.678Z,56.60
2018-09-04T20:15:12.771Z,56.00
2018-09-04T20:17:40.867Z,56.10
2018-09-04T20:20:09.006Z,56.10
2018-09-04T20:22:37.087Z,55.90
2018-09-04T20:25:05.203Z,56.10
2018-09-04T20:27:33.279Z,56.80
2018-09-04T20:30:01.352Z,56.20
2018-09-04T20:32:29.487Z,56.30
2018-09-04T20:34:57.495Z,56.60
2018-09-04T20:37:25.559Z,56.40
2018-09-04T20:39:53.610Z,56.40
2018-09-04T20:42:21.691Z,56.20
2018-09-04T20:44:49.996Z,56.10
2018-09-04T20:47:18.055Z,56.10
2018-09-04T20:49:46.124Z,56.40
2018-09-04T20:52:14.195Z,56.10
2018-09-04T20:54:42.255Z,56.00
2018-09-04T20:57:26.882Z,56.10
2018-09-04T21:00:07.745Z,56.10
2018-09-04T21:02:47.520Z,56.10
2018-09-04T21:05:27.871Z,56.20
2018-09-04T21:08:46.772Z,56.20
2018-09-04T21:11:14.971Z,56.20
2018-09-04T21:13:43.027Z,56.20
2018-09-04T21:16:11.094Z,56.30
2018-09-04T21:18:39.167Z,56.30
2018-09-04T21:21:07.239Z,56.20
2018-09-04T21:23:35.309Z,56.20
2018-09-04T21:26:03.379Z,56.20
2018-09-04T21:28:31.463Z,56.20
2018-09-04T21:30:59.520Z,56.20
2018-09-04T21:33:27.598Z,56.10
2018-09-04T21:35:55.655Z,56.10
2018-09-04T21:38:23.783Z,56.10
2018-09-04T21:40:51.851Z,56.10
2018-09-04T21:43:19.926Z,56.00
2018-09-04T21:45:48.029Z,56.00
2018-09-04T21:48:16.079Z,56.00
2018-09-04T21:50:44.139Z,56.00
2018-09-04T21:53:12.200Z,55.90
2018-09-04T21:55:40.271Z,55.90
2018-09-04T21:58:08.711Z,55.90
2018-09-04T22:00:36.859Z,55.90
2018-09-04T22:03:04.952Z,55.80
2018-09-04T22:05:33.063Z,55.80
2018-09-04T22:08:01.135Z,55.80
2018-09-04T22:10:29.211Z,55.70
2018-09-04T22:12:57.314Z,55.80
2018-09-04T22:15:25.387Z,55.70
2018-09-04T22:17:53.576Z,55.80
2018-09-04T22:20:21.634Z,55.80
2018-09-04T22:22:49.695Z,55.80
2018-09-04T22:25:17.787Z,55.70
2018-09-04T22:27:45.863Z,55.70
2018-09-04T22:30:15.176Z,55.60
2018-09-04T22:32:43.259Z,55.60
2018-09-04T22:35:11.357Z,55.70
2018-09-04T22:37:39.567Z,55.60
2018-09-04T22:40:07.731Z,55.60
2018-09-04T22:42:35.879Z,55.50
2018-09-04T22:45:03.964Z,56.20
2018-09-04T22:47:32.071Z,55.60
2018-09-04T22:50:05.715Z,55.60
2018-09-04T22:52:33.920Z,55.10
2018-09-04T22:55:04.783Z,55.70
2018-09-04T22:57:32.865Z,55.70
2018-09-04T23:00:00.947Z,55.60
2018-09-04T23:02:29.023Z,55.50
2018-09-04T23:04:57.320Z,55.40
2018-09-04T23:07:25.419Z,55.20
2018-09-04T23:09:53.511Z,54.10
2018-09-04T23:12:21.619Z,54.50
2018-09-04T23:14:49.726Z,55.20
2018-09-04T23:17:17.829Z,54.90
2018-09-04T23:19:46.082Z,55.00
2018-09-04T23:22:14.167Z,55.50
2018-09-04T23:24:42.235Z,55.20
2018-09-04T23:27:10.308Z,54.90
2018-09-04T23:29:38.766Z,54.80
2018-09-04T23:32:06.834Z,54.50
2018-09-04T23:34:35.218Z,54.40
2018-09-04T23:37:03.288Z,53.40
2018-09-04T23:39:31.358Z,54.70
2018-09-04T23:41:59.432Z,54.50
2018-09-04T23:44:27.495Z,54.30
2018-09-04T23:46:55.557Z,54.50
2018-09-04T23:49:23.615Z,54.00
2018-09-04T23:51:51.689Z,54.00
2018-09-04T23:54:19.781Z,54.40
2018-09-04T23:56:47.874Z,54.10
2018-09-04T23:59:15.938Z,54.30
